Terminal Aerodrome Forecast
Issued by NWS Norman, OK

Home | Current Version | Previous Version | Text Only | Print | Product List | Glossary On
Versions: 1 2 3 4 5 6 7 8 9 10 11 12 13 14 15
000
FTUS44 KOUN 290539
TAFSPS
TAF
KSPS 290539Z 2906/3006 33015G25KT 2SM -TSRA BR BKN030 OVC040CB
     FM291000 02004KT 1SM BR OVC010
     FM291500 33010KT 4SM BR OVC030
      TEMPO 2915/2919 -RA OVC020
     FM292100 29012KT P6SM BKN040=

USA.gov is the U.S. government's official web portal to all federal, state and local government web resources and services.